Time;durP1;ratioP1;P1;durP2;ratioP2;P2;SDS_P1;SDS_P2;PMS_P1;PMS_P2;Temp;Humidity;BMP_temperature;BMP_pressure;BME280_temperature;BME280_humidity;BME280_pressure;Samples;Min_cycle;Max_cycle;Signal;HPM_P1;HPM_P2
2021/12/27 00:01:23;;;;;;;41.03;15.75;;;;;;;0.05;100.00;99914.38;5018824;28;20032;-80
2021/12/27 00:03:51;;;;;;;38.70;15.32;;;;;;;0.34;100.00;99882.34;5030102;28;20033;-79
2021/12/27 00:06:21;;;;;;;38.85;15.50;;;;;;;0.60;100.00;99904.16;5002334;28;20046;-79
2021/12/27 00:08:51;;;;;;;42.33;16.05;;;;;;;0.34;100.00;99861.56;4996229;28;20030;-80
2021/12/27 00:11:17;;;;;;;37.60;15.35;;;;;;;0.50;100.00;99851.09;5015948;28;20044;-79
2021/12/27 00:13:45;;;;;;;42.50;16.45;;;;;;;0.35;100.00;99919.53;5015352;28;20045;-79
2021/12/27 00:16:11;;;;;;;40.83;16.05;;;;;;;0.37;100.00;99866.56;4991526;28;20050;-79
2021/12/27 00:18:37;;;;;;;42.83;16.73;;;;;;;0.55;100.00;99869.00;5025435;28;20017;-80
2021/12/27 00:21:03;;;;;;;44.90;15.80;;;;;;;0.40;100.00;99879.38;5019865;28;20387;-78
2021/12/27 00:23:30;;;;;;;41.47;16.15;;;;;;;0.19;100.00;99832.16;4997608;28;20037;-78
2021/12/27 00:25:56;;;;;;;44.65;16.02;;;;;;;0.62;100.00;99860.75;5024491;28;20030;-78
2021/12/27 00:28:22;;;;;;;46.92;16.55;;;;;;;0.57;100.00;99872.34;5027230;28;20026;-80
2021/12/27 00:30:51;;;;;;;42.30;16.27;;;;;;;0.40;100.00;99829.19;5020570;28;20365;-79
2021/12/27 00:33:17;;;;;;;44.72;17.05;;;;;;;0.22;100.00;99838.91;5040351;28;20101;-79
2021/12/27 00:35:46;;;;;;;47.47;16.13;;;;;;;0.97;100.00;99901.91;5019459;28;20019;-79
2021/12/27 00:38:12;;;;;;;42.20;16.45;;;;;;;1.04;100.00;99884.19;5012434;28;20018;-79
2021/12/27 00:40:38;;;;;;;39.30;16.42;;;;;;;0.86;100.00;99893.94;5008623;28;20033;-78
2021/12/27 00:43:05;;;;;;;36.25;14.80;;;;;;;0.59;100.00;99878.25;5010236;28;20023;-79
2021/12/27 00:45:31;;;;;;;38.33;15.88;;;;;;;0.52;100.00;99841.47;4990711;28;20034;-78
2021/12/27 00:47:59;;;;;;;82.65;29.20;;;;;;;0.91;100.00;99888.47;4992789;28;20093;-79
2021/12/27 00:50:26;;;;;;;46.13;18.67;;;;;;;0.68;100.00;99845.69;5011789;28;20026;-78
2021/12/27 00:52:55;;;;;;;38.53;15.13;;;;;;;0.50;100.00;99793.09;5007221;28;20121;-78
2021/12/27 00:55:25;;;;;;;46.53;16.83;;;;;;;0.94;100.00;99865.72;5002246;28;20056;-78
2021/12/27 00:57:53;;;;;;;43.63;16.33;;;;;;;0.96;100.00;99832.66;4976502;28;20047;-79
2021/12/27 01:00:23;;;;;;;41.30;16.50;;;;;;;0.74;100.00;99806.34;5001321;28;20026;-79
2021/12/27 01:02:49;;;;;;;42.15;15.93;;;;;;;0.45;100.00;99826.31;4978572;28;20397;-79
2021/12/27 01:05:17;;;;;;;42.85;16.30;;;;;;;0.55;100.00;99827.44;5014709;28;20040;-80
2021/12/27 01:07:45;;;;;;;38.20;16.00;;;;;;;1.06;100.00;99866.72;5049511;23;20013;-80
2021/12/27 01:13:19;;;;;;;37.08;15.93;;;;;;;1.16;100.00;99873.03;4997869;28;20046;-79
2021/12/27 01:16:02;;;;;;;50.70;15.30;;;;;;;1.23;100.00;99863.06;5003997;28;20037;-79
2021/12/27 01:18:31;;;;;;;39.17;16.30;;;;;;;0.74;100.00;99785.56;4991992;28;20033;-80
2021/12/27 01:20:59;;;;;;;41.25;16.15;;;;;;;1.16;100.00;99856.56;5001398;28;20264;-79
2021/12/27 01:23:25;;;;;;;43.90;16.50;;;;;;;0.96;100.00;99816.25;4991147;28;20068;-80
2021/12/27 01:25:51;;;;;;;40.78;16.65;;;;;;;0.85;100.00;99803.91;5005858;28;20121;-78
2021/12/27 01:28:20;;;;;;;41.80;15.68;;;;;;;0.95;100.00;99789.41;4974987;28;20049;-79
2021/12/27 01:30:49;;;;;;;39.50;15.73;;;;;;;1.00;100.00;99818.56;4997568;28;20026;-80
2021/12/27 01:33:23;;;;;;;43.95;16.88;;;;;;;1.20;100.00;99834.66;4997813;28;20038;-79
2021/12/27 01:35:50;;;;;;;36.33;15.85;;;;;;;1.07;100.00;99838.94;4983892;28;20018;-79
2021/12/27 01:38:16;;;;;;;37.83;15.98;;;;;;;0.65;100.00;99766.19;5023588;28;20042;-79
2021/12/27 01:40:49;;;;;;;33.78;15.82;;;;;;;1.23;100.00;99834.47;5007412;28;20031;-78
2021/12/27 01:43:25;;;;;;;36.83;15.73;;;;;;;1.09;100.00;99811.94;4987740;28;20041;-79
2021/12/27 01:45:58;;;;;;;35.97;15.38;;;;;;;0.88;100.00;99769.09;5021313;28;20125;-79
2021/12/27 01:48:36;;;;;;;40.47;17.23;;;;;;;1.19;100.00;99844.22;5049879;22;20121;-79
2021/12/27 01:51:05;;;;;;;39.92;16.52;;;;;;;0.61;100.00;99833.09;5039410;28;20033;-78
2021/12/27 01:53:35;;;;;;;41.58;16.98;;;;;;;0.59;100.00;99769.16;5046292;28;20025;-79
2021/12/27 01:56:06;;;;;;;35.83;17.05;;;;;;;1.33;100.00;99832.09;5026946;28;20063;-78
2021/12/27 01:58:34;;;;;;;39.63;16.10;;;;;;;0.89;100.00;99812.38;5023315;28;20033;-78
2021/12/27 02:01:22;;;;;;;43.53;17.30;;;;;;;0.97;100.00;99831.72;5019157;28;20022;-78
2021/12/27 02:03:50;;;;;;;37.47;16.15;;;;;;;0.98;100.00;99830.81;5051853;28;20025;-78
2021/12/27 02:06:16;;;;;;;36.33;16.15;;;;;;;1.29;100.00;99833.22;5018731;28;20029;-78
2021/12/27 02:08:45;;;;;;;34.83;16.38;;;;;;;0.77;100.00;99762.81;5022104;28;20451;-78
2021/12/27 02:11:12;;;;;;;39.60;15.77;;;;;;;1.33;100.00;99835.53;5023463;28;20080;-78
2021/12/27 02:13:43;;;;;;;40.20;16.83;;;;;;;1.02;100.00;99800.25;5046023;28;20480;-77
2021/12/27 02:16:15;;;;;;;36.22;15.85;;;;;;;1.38;100.00;99840.44;5040868;28;20021;-78
2021/12/27 02:18:41;;;;;;;35.47;16.13;;;;;;;0.62;100.00;99767.22;5024280;28;20025;-78
2021/12/27 02:21:09;;;;;;;40.92;16.98;;;;;;;0.72;100.00;99810.81;5035401;28;20079;-77
2021/12/27 02:23:37;;;;;;;41.50;17.35;;;;;;;1.08;100.00;99773.88;5050098;28;20097;-77
2021/12/27 02:26:03;;;;;;;43.95;17.85;;;;;;;1.17;100.00;99840.88;5021309;28;20136;-77
2021/12/27 02:28:31;;;;;;;39.45;16.35;;;;;;;0.98;100.00;99789.22;5037485;28;20028;-77
2021/12/27 02:31:01;;;;;;;43.13;17.30;;;;;;;1.33;100.00;99819.09;5045480;28;20016;-78
2021/12/27 02:33:27;;;;;;;40.47;17.10;;;;;;;0.58;100.00;99773.50;5056726;28;20053;-77
2021/12/27 02:35:56;;;;;;;41.70;17.20;;;;;;;1.23;100.00;99808.47;5040043;28;20155;-77
2021/12/27 02:38:30;;;;;;;41.33;17.95;;;;;;;1.24;100.00;99784.94;5065382;28;20033;-77
2021/12/27 02:41:00;;;;;;;40.22;17.02;;;;;;;1.43;100.00;99808.00;5054556;28;20021;-77
2021/12/27 02:43:31;;;;;;;37.08;16.67;;;;;;;1.13;100.00;99757.97;5049278;28;20039;-78
2021/12/27 02:46:03;;;;;;;38.72;16.38;;;;;;;1.30;100.00;99817.53;5049735;28;20068;-77
2021/12/27 02:48:36;;;;;;;37.63;17.45;;;;;;;1.36;100.00;99798.09;5053970;28;20049;-77
2021/12/27 02:51:02;;;;;;;39.78;17.35;;;;;;;1.32;100.00;99737.66;5022233;28;20040;-77
2021/12/27 02:53:28;;;;;;;36.65;15.73;;;;;;;1.54;100.00;99788.25;5034696;28;20020;-77
2021/12/27 02:55:59;;;;;;;41.60;16.45;;;;;;;1.54;100.00;99796.06;5037388;28;20021;-77
2021/12/27 02:58:28;;;;;;;35.97;15.77;;;;;;;1.67;100.00;99807.34;5021773;28;20027;-77
2021/12/27 03:01:02;;;;;;;44.35;16.60;;;;;;;1.24;100.00;99738.13;5033768;28;20657;-78
2021/12/27 03:03:28;;;;;;;36.70;16.40;;;;;;;1.50;100.00;99776.38;5047544;28;20096;-78
2021/12/27 03:05:55;;;;;;;38.63;15.90;;;;;;;1.56;100.00;99805.44;5047041;28;20040;-78
2021/12/27 03:08:24;;;;;;;33.65;15.13;;;;;;;1.42;100.00;99759.50;5034729;28;20032;-78
2021/12/27 03:11:02;;;;;;;33.90;15.63;;;;;;;1.56;100.00;99799.41;5046386;28;20021;-79
2021/12/27 03:13:33;;;;;;;36.45;15.82;;;;;;;1.50;100.00;99779.84;5052311;28;20033;-78
2021/12/27 03:16:14;;;;;;;37.70;15.32;;;;;;;1.62;100.00;99788.59;5061903;28;20108;-78
2021/12/27 03:18:43;;;;;;;35.22;15.20;;;;;;;1.54;100.00;99801.25;5046412;28;20103;-78
2021/12/27 03:21:09;;;;;;;34.83;16.00;;;;;;;1.49;100.00;99803.34;5019946;28;20046;-77
2021/12/27 03:23:37;;;;;;;33.50;15.10;;;;;;;1.54;100.00;99803.88;5038118;28;20021;-78
2021/12/27 03:26:03;;;;;;;33.42;15.30;;;;;;;1.32;100.00;99802.66;5048757;28;20026;-77
2021/12/27 03:28:29;;;;;;;36.15;15.93;;;;;;;1.34;100.00;99769.59;5050157;28;20105;-76
2021/12/27 03:30:57;;;;;;;36.05;15.10;;;;;;;0.97;100.00;99727.75;5065538;28;20028;-77
2021/12/27 03:33:24;;;;;;;34.95;15.45;;;;;;;1.44;100.00;99769.81;5019881;28;20111;-77
2021/12/27 03:35:59;;;;;;;35.58;15.38;;;;;;;1.47;100.00;99769.59;5035291;28;20370;-77
2021/12/27 03:38:26;;;;;;;34.00;14.32;;;;;;;1.43;100.00;99758.59;5068610;28;20063;-78
2021/12/27 03:40:52;;;;;;;35.30;15.80;;;;;;;1.37;100.00;99751.19;5048823;28;20069;-77
2021/12/27 03:43:18;;;;;;;36.88;14.48;;;;;;;1.67;100.00;99792.53;5034641;28;20068;-75
2021/12/27 03:45:43;;;;;;;33.30;14.73;;;;;;;1.43;100.00;99737.78;5034701;28;20071;-76
2021/12/27 03:48:11;;;;;;;32.50;14.35;;;;;;;1.09;100.00;99707.94;5012837;28;20087;-77
2021/12/27 03:50:38;;;;;;;32.08;14.23;;;;;;;1.19;100.00;99700.38;5048635;28;20083;-76
2021/12/27 03:53:05;;;;;;;32.20;14.65;;;;;;;1.74;100.00;99745.28;5015250;28;20017;-77
2021/12/27 03:55:31;;;;;;;31.45;14.20;;;;;;;1.48;100.00;99711.44;5027677;28;20033;-76
2021/12/27 03:58:08;;;;;;;34.72;14.45;;;;;;;1.59;100.00;99753.19;5066626;28;20032;-76
2021/12/27 04:01:00;;;;;;;33.75;14.00;;;;;;;1.51;100.00;99713.84;5032746;28;20017;-77
2021/12/27 04:03:26;;;;;;;33.30;14.38;;;;;;;1.48;100.00;99736.63;5046641;28;20025;-77
2021/12/27 04:05:52;;;;;;;34.60;15.48;;;;;;;1.68;100.00;99756.94;5061798;28;20022;-77
2021/12/27 04:08:18;;;;;;;32.58;14.65;;;;;;;1.73;100.00;99733.22;5035975;28;20438;-76
2021/12/27 04:10:46;;;;;;;32.88;15.15;;;;;;;1.79;100.00;99732.81;5032344;28;20374;-77
2021/12/27 04:13:12;;;;;;;32.90;14.15;;;;;;;1.35;100.00;99705.41;5015257;28;20134;-77
2021/12/27 04:15:39;;;;;;;32.45;14.23;;;;;;;1.61;100.00;99714.06;5018736;28;20025;-76
2021/12/27 04:18:06;;;;;;;30.95;14.40;;;;;;;1.60;100.00;99725.41;5034706;28;20020;-76
2021/12/27 04:20:32;;;;;;;29.48;13.27;;;;;;;1.77;100.00;99717.31;5033937;28;20018;-76
2021/12/27 04:22:57;;;;;;;33.20;14.23;;;;;;;1.91;100.00;99723.31;5034413;28;20344;-76
2021/12/27 04:25:23;;;;;;;33.85;14.10;;;;;;;1.32;100.00;99671.75;5032168;28;20030;-77
2021/12/27 04:27:50;;;;;;;27.70;13.23;;;;;;;1.37;100.00;99673.13;5035111;28;20097;-77
2021/12/27 04:30:19;;;;;;;26.95;13.00;;;;;;;1.43;100.00;99675.34;5027184;28;20455;-77
2021/12/27 04:32:44;;;;;;;29.52;12.93;;;;;;;1.61;100.00;99682.81;5033528;28;20076;-76
2021/12/27 04:35:11;;;;;;;31.23;13.10;;;;;;;1.62;100.00;99729.56;5012270;28;20033;-77
2021/12/27 04:37:39;;;;;;;27.30;12.70;;;;;;;1.79;100.00;99738.00;5032427;28;20033;-75
2021/12/27 04:40:08;;;;;;;25.77;12.75;;;;;;;1.77;100.00;99704.28;5016357;28;20467;-76
2021/12/27 04:42:37;;;;;;;28.48;12.77;;;;;;;1.85;100.00;99682.94;5028436;28;20017;-76
2021/12/27 04:45:04;;;;;;;31.05;13.82;;;;;;;1.61;100.00;99680.22;5031745;28;20293;-77
2021/12/27 04:47:31;;;;;;;29.25;12.68;;;;;;;1.64;100.00;99699.06;5048877;28;20065;-76
2021/12/27 04:50:00;;;;;;;31.45;13.60;;;;;;;1.61;100.00;99675.88;5032256;28;20050;-76
2021/12/27 04:52:26;;;;;;;28.25;13.43;;;;;;;1.90;100.00;99722.50;5032670;28;20101;-77
2021/12/27 04:54:52;;;;;;;30.17;14.05;;;;;;;1.68;100.00;99668.44;5041415;28;20050;-76
2021/12/27 04:57:18;;;;;;;28.25;13.20;;;;;;;1.84;100.00;99674.31;5030198;28;20018;-76
2021/12/27 04:59:44;;;;;;;30.70;13.70;;;;;;;2.08;100.00;99700.41;5072819;28;20017;-76
2021/12/27 05:02:09;;;;;;;31.90;13.65;;;;;;;1.94;100.00;99718.75;5019276;28;20083;-76
2021/12/27 05:04:39;;;;;;;29.83;13.48;;;;;;;1.87;100.00;99691.47;5028941;28;20064;-76
2021/12/27 05:07:04;;;;;;;41.25;15.30;;;;;;;1.85;100.00;99721.97;4996251;28;20061;-76
2021/12/27 05:09:31;;;;;;;34.55;14.43;;;;;;;1.61;100.00;99656.81;5033553;28;20650;-76
2021/12/27 05:11:57;;;;;;;34.88;14.25;;;;;;;1.72;100.00;99656.91;5014732;28;20026;-76
2021/12/27 05:14:22;;;;;;;39.80;15.23;;;;;;;1.45;100.00;99636.19;5011867;28;20056;-75
2021/12/27 05:16:48;;;;;;;35.88;15.40;;;;;;;1.86;100.00;99703.66;5019905;28;20056;-77
2021/12/27 05:19:15;;;;;;;36.33;15.23;;;;;;;2.11;100.00;99714.16;5011481;28;20037;-77
2021/12/27 05:21:41;;;;;;;34.63;14.73;;;;;;;1.70;100.00;99617.13;5026448;28;20033;-76
2021/12/27 05:24:07;;;;;;;36.38;14.95;;;;;;;1.58;100.00;99626.63;5032826;28;20017;-76
2021/12/27 05:26:35;;;;;;;36.25;14.88;;;;;;;1.56;100.00;99675.31;5034648;28;20032;-77
2021/12/27 05:29:01;;;;;;;43.97;15.60;;;;;;;1.50;100.00;99673.16;5021384;28;20471;-76
2021/12/27 05:31:28;;;;;;;37.22;16.23;;;;;;;1.78;100.00;99648.69;5024637;28;20022;-76
2021/12/27 05:33:54;;;;;;;41.47;16.75;;;;;;;2.06;100.00;99670.19;5013317;28;20037;-77
2021/12/27 05:36:19;;;;;;;33.88;14.70;;;;;;;1.90;100.00;99660.00;5029940;28;20079;-76
2021/12/27 05:38:45;;;;;;;35.10;15.23;;;;;;;1.77;100.00;99602.78;5060857;28;20083;-77
2021/12/27 05:41:11;;;;;;;36.97;15.50;;;;;;;1.86;100.00;99607.34;5016599;28;20041;-77
2021/12/27 05:43:36;;;;;;;35.08;14.40;;;;;;;2.11;100.00;99656.84;5070390;28;20455;-76
2021/12/27 05:46:03;;;;;;;38.60;16.08;;;;;;;2.21;100.00;99656.09;5061965;28;20092;-77
2021/12/27 05:48:30;;;;;;;37.28;14.85;;;;;;;2.18;100.00;99645.91;5036573;28;20448;-77
2021/12/27 05:50:56;;;;;;;36.88;15.32;;;;;;;2.35;100.00;99669.94;5054614;28;20115;-76
2021/12/27 05:53:21;;;;;;;37.08;15.98;;;;;;;2.24;100.00;99603.78;5041353;28;20053;-78
2021/12/27 05:55:47;;;;;;;35.60;15.23;;;;;;;2.40;100.00;99650.41;5026170;28;20071;-77
2021/12/27 05:58:13;;;;;;;36.55;16.23;;;;;;;2.37;100.00;99648.03;5040130;28;20056;-79
2021/12/27 06:00:41;;;;;;;41.60;16.05;;;;;;;2.22;100.00;99678.59;4994115;28;20479;-80
2021/12/27 06:06:48;;;;;;;41.85;16.13;;;;;;;2.08;100.00;99658.72;5032624;28;20049;-81
2021/12/27 06:09:19;;;;;;;38.40;15.90;;;;;;;2.35;100.00;99677.75;5014899;28;20022;-79
2021/12/27 06:11:45;;;;;;;39.25;16.13;;;;;;;2.32;100.00;99685.75;4993250;28;20072;-79
2021/12/27 06:14:12;;;;;;;39.17;16.55;;;;;;;2.23;100.00;99679.44;5009383;28;20034;-79
2021/12/27 06:16:38;;;;;;;42.42;15.75;;;;;;;2.02;100.00;99664.38;5010394;28;20499;-79
2021/12/27 06:19:04;;;;;;;45.25;17.00;;;;;;;2.11;100.00;99670.69;5010382;28;20384;-79
2021/12/27 06:21:33;;;;;;;46.50;16.88;;;;;;;1.86;100.00;99614.31;5027109;28;20037;-80
2021/12/27 06:23:59;;;;;;;46.70;17.08;;;;;;;1.83;100.00;99596.31;5043055;28;20048;-80
2021/12/27 06:26:25;;;;;;;46.25;16.77;;;;;;;2.15;100.00;99648.72;4993770;28;20026;-78
2021/12/27 06:28:50;;;;;;;47.92;15.98;;;;;;;1.83;100.00;99640.56;5012710;28;20045;-79
2021/12/27 06:31:16;;;;;;;46.40;16.08;;;;;;;1.98;100.00;99625.66;5028795;28;20434;-78
2021/12/27 06:33:42;;;;;;;49.70;16.30;;;;;;;2.29;100.00;99684.22;4995977;28;20061;-79
2021/12/27 06:36:08;;;;;;;50.50;16.88;;;;;;;2.38;100.00;99678.34;5030415;28;20034;-79
2021/12/27 06:38:33;;;;;;;63.05;18.30;;;;;;;1.77;100.00;99646.16;5028557;28;20021;-80
2021/12/27 06:41:00;;;;;;;55.90;17.58;;;;;;;1.65;100.00;99601.00;5011851;28;20026;-80
2021/12/27 06:43:30;;;;;;;62.17;16.70;;;;;;;2.24;100.00;99689.75;5006626;28;20026;-80
2021/12/27 06:45:57;;;;;;;63.97;16.95;;;;;;;2.00;100.00;99635.03;5009337;28;20030;-79
2021/12/27 06:52:59;;;;;;;62.55;17.92;;;;;;;2.12;100.00;99655.94;4982727;28;20049;-78
2021/12/27 06:55:26;;;;;;;49.00;16.35;;;;;;;2.48;100.00;99665.50;4963808;28;20042;-78
2021/12/27 06:57:56;;;;;;;47.80;16.17;;;;;;;2.38;100.00;99636.66;4983323;28;20027;-79
2021/12/27 07:00:22;;;;;;;48.08;15.77;;;;;;;2.26;100.00;99646.19;4982033;28;20037;-79
2021/12/27 07:06:29;;;;;;;45.05;16.23;;;;;;;2.68;100.00;99653.63;4984220;28;20117;-79
2021/12/27 07:08:58;;;;;;;48.10;17.10;;;;;;;2.62;100.00;99669.75;4984190;28;20114;-79
2021/12/27 07:11:23;;;;;;;70.25;17.77;;;;;;;2.44;100.00;99675.31;4965894;28;20050;-79
2021/12/27 07:13:49;;;;;;;55.45;18.35;;;;;;;2.35;100.00;99655.13;4984332;28;20030;-81
2021/12/27 07:16:15;;;;;;;52.30;17.35;;;;;;;2.46;100.00;99659.59;4962480;28;20029;-77
2021/12/27 07:18:40;;;;;;;73.75;17.88;;;;;;;2.15;100.00;99663.50;4979412;28;20037;-78
2021/12/27 07:21:06;;;;;;;72.28;18.00;;;;;;;1.91;100.00;99645.22;4982849;28;20026;-79
2021/12/27 07:23:32;;;;;;;56.60;17.75;;;;;;;1.86;100.00;99632.53;4982489;28;20090;-79
2021/12/27 07:25:58;;;;;;;57.80;18.65;;;;;;;2.45;100.00;99678.75;4981285;28;20069;-78
2021/12/27 07:28:23;;;;;;;55.65;18.48;;;;;;;2.19;100.00;99657.97;4983212;28;20137;-79
2021/12/27 07:30:49;;;;;;;51.13;17.55;;;;;;;2.19;100.00;99678.81;4986071;28;20026;-79
2021/12/27 07:36:56;;;;;;;47.65;16.58;;;;;;;2.44;100.00;99651.88;4994329;28;20409;-80
2021/12/27 07:39:24;;;;;;;46.53;16.50;;;;;;;2.41;100.00;99639.06;4975828;28;20090;-81
2021/12/27 07:41:49;;;;;;;51.83;17.67;;;;;;;2.05;100.00;99611.25;4973953;28;20023;-79
2021/12/27 07:44:18;;;;;;;48.58;17.25;;;;;;;2.04;100.00;99594.81;4975431;28;20034;-79
2021/12/27 07:46:46;;;;;;;47.33;17.42;;;;;;;2.00;100.00;99584.69;4989512;28;20023;-79
2021/12/27 07:49:15;;;;;;;54.67;17.27;;;;;;;2.48;100.00;99666.34;4988811;28;20027;-80
2021/12/27 07:51:42;;;;;;;60.58;18.63;;;;;;;2.44;100.00;99640.63;4998767;28;20069;-79
2021/12/27 07:54:09;;;;;;;48.00;17.63;;;;;;;2.48;100.00;99631.66;5038130;28;20034;-79
2021/12/27 07:56:38;;;;;;;48.30;17.92;;;;;;;2.54;100.00;99644.22;5036438;28;20030;-80
2021/12/27 07:59:06;;;;;;;52.35;17.65;;;;;;;2.60;100.00;99648.16;5019688;28;20169;-79
2021/12/27 08:01:34;;;;;;;58.35;17.58;;;;;;;2.36;100.00;99630.72;5004790;28;20033;-79
2021/12/27 08:04:04;;;;;;;46.72;18.80;;;;;;;2.50;100.00;99638.41;4987756;28;20065;-79
2021/12/27 08:06:31;;;;;;;58.97;20.27;;;;;;;2.59;100.00;99610.84;4989192;28;20125;-81
2021/12/27 08:09:00;;;;;;;68.00;20.38;;;;;;;2.58;100.00;99640.44;4989205;28;20030;-81
2021/12/27 08:11:27;;;;;;;59.90;20.33;;;;;;;2.38;100.00;99630.63;5004802;28;20026;-82
2021/12/27 08:13:56;;;;;;;59.55;22.63;;;;;;;2.59;100.00;99605.63;5021930;28;20027;-79
2021/12/27 08:16:25;;;;;;;59.15;19.67;;;;;;;2.51;100.00;99600.13;4987170;28;20026;-79
2021/12/27 08:22:38;;;;;;;98.03;33.50;;;;;;;2.80;100.00;99633.69;5009660;28;20539;-80
2021/12/27 08:25:10;;;;;;;55.83;20.13;;;;;;;2.73;100.00;99615.06;5006373;28;20391;-79
2021/12/27 08:27:42;;;;;;;50.40;18.75;;;;;;;2.88;100.00;99613.06;5006920;28;20022;-79
2021/12/27 08:30:10;;;;;;;60.13;19.80;;;;;;;2.38;100.00;99584.56;5005517;28;20034;-79
2021/12/27 08:32:38;;;;;;;73.05;27.38;;;;;;;3.11;100.00;99663.53;5005660;28;20380;-77
2021/12/27 08:35:08;;;;;;;53.15;21.20;;;;;;;3.20;100.00;99667.22;5038633;28;20030;-79
2021/12/27 08:37:35;;;;;;;52.35;20.42;;;;;;;2.76;100.00;99598.34;5011002;28;20022;-79
2021/12/27 08:40:00;;;;;;;49.22;18.38;;;;;;;3.08;100.00;99635.91;5013161;28;20053;-78
2021/12/27 08:42:26;;;;;;;63.78;18.35;;;;;;;3.00;100.00;99668.69;5012508;28;20030;-78
2021/12/27 08:44:52;;;;;;;53.25;19.30;;;;;;;2.96;100.00;99647.25;5045113;28;20061;-78
2021/12/27 08:47:19;;;;;;;61.03;18.27;;;;;;;2.84;100.00;99615.09;5012916;28;20022;-78
2021/12/27 08:49:45;;;;;;;57.65;20.90;;;;;;;2.88;100.00;99587.00;5014867;28;20041;-81
2021/12/27 08:52:11;;;;;;;63.33;20.27;;;;;;;2.54;100.00;99560.00;5008272;28;20464;-81
2021/12/27 08:54:38;;;;;;;89.82;30.67;;;;;;;3.43;100.00;99642.88;5033583;28;20034;-78
2021/12/27 08:57:09;;;;;;;58.30;19.67;;;;;;;2.78;100.00;99571.22;4999764;28;20459;-79
2021/12/27 08:59:37;;;;;;;55.25;18.42;;;;;;;2.92;100.00;99575.41;5000525;28;20086;-80
2021/12/27 09:02:05;;;;;;;49.85;17.45;;;;;;;3.14;100.00;99577.25;5000550;28;20027;-81
2021/12/27 09:04:34;;;;;;;115.50;41.45;;;;;;;3.30;100.00;99608.22;5036748;23;20140;-79
2021/12/27 09:07:05;;;;;;;56.15;19.95;;;;;;;3.30;100.00;99559.47;5019124;28;20064;-78
2021/12/27 09:09:33;;;;;;;52.53;18.13;;;;;;;3.20;100.00;99618.50;5055403;28;20029;-79
2021/12/27 09:12:01;;;;;;;54.38;19.00;;;;;;;3.78;100.00;99655.00;5038237;28;20529;-80
2021/12/27 09:14:30;;;;;;;57.97;17.58;;;;;;;3.25;100.00;99611.19;5021427;28;20395;-82
2021/12/27 09:16:56;;;;;;;50.95;17.70;;;;;;;3.15;100.00;99563.25;5039982;28;20022;-84
2021/12/27 09:19:22;;;;;;;54.67;18.60;;;;;;;3.68;100.00;99633.16;5038931;23;20057;-79
2021/12/27 09:21:48;;;;;;;53.25;19.17;;;;;;;3.80;100.00;99634.84;5017887;28;20046;-79
2021/12/27 09:24:14;;;;;;;53.58;18.05;;;;;;;3.26;100.00;99594.56;5019805;28;20045;-80
2021/12/27 09:26:46;;;;;;;47.47;18.50;;;;;;;3.69;100.00;99635.66;5039655;28;20401;-82
2021/12/27 09:29:12;;;;;;;139.45;54.10;;;;;;;3.25;100.00;99592.09;5025448;28;20033;-82
2021/12/27 09:31:59;;;;;;;59.88;19.85;;;;;;;3.38;100.00;99578.91;5023645;28;20056;-84
2021/12/27 09:34:33;;;;;;;55.67;17.90;;;;;;;3.36;100.00;99560.75;5119198;23;20061;-84
2021/12/27 09:36:58;;;;;;;63.80;17.55;;;;;;;3.83;100.00;99631.97;5003321;28;20042;-81
2021/12/27 09:39:24;;;;;;;80.82;18.75;;;;;;;2.66;100.00;99557.31;5029120;23;20099;-80
2021/12/27 09:42:03;;;;;;;58.95;20.40;;;;;;;3.17;100.00;99574.38;5007753;28;20068;-81
2021/12/27 09:44:41;;;;;;;;;;;;;;;3.54;100.00;99631.59;5021245;28;20531;-81
2021/12/27 09:47:11;;;;;;;50.75;17.48;;;;;;;3.35;100.00;99580.00;5006557;28;19939;-82
2021/12/27 09:49:40;;;;;;;53.35;18.38;;;;;;;3.06;100.00;99543.91;5020966;28;20053;-82
2021/12/27 09:52:12;;;;;;;49.28;17.92;;;;;;;3.48;100.00;99583.31;5034021;28;20028;-81
2021/12/27 09:54:47;;;;;;;50.08;18.48;;;;;;;3.69;100.00;99621.78;5034415;23;20042;-81
2021/12/27 09:57:22;;;;;;;51.97;19.70;;;;;;;3.54;100.00;99629.84;5018157;28;20103;-84
2021/12/27 09:59:52;;;;;;;66.57;23.98;;;;;;;3.47;100.00;99568.59;5069874;22;20146;-87
2021/12/27 10:02:23;;;;;;;51.05;19.10;;;;;;;3.52;100.00;99602.16;5121894;23;20064;-78
2021/12/27 10:04:53;;;;;;;47.22;18.52;;;;;;;3.31;100.00;99563.72;5025625;28;20037;-83
2021/12/27 10:07:23;;;;;;;44.58;17.85;;;;;;;3.57;100.00;99576.56;5018507;28;20030;-77
2021/12/27 10:09:58;;;;;;;43.85;17.40;;;;;;;3.97;100.00;99618.69;5035028;28;20021;-77
2021/12/27 10:12:24;;;;;;;44.58;18.02;;;;;;;3.83;100.00;99594.59;5035093;28;20049;-78
2021/12/27 10:15:00;;;;;;;41.53;17.77;;;;;;;3.63;100.00;99572.63;5039534;28;20025;-80
2021/12/27 10:17:34;;;;;;;45.63;17.42;;;;;;;3.72;100.00;99545.81;5040191;28;20029;-78
2021/12/27 10:20:18;;;;;;;41.08;17.98;;;;;;;3.85;100.00;99577.03;5039590;28;20025;-79
2021/12/27 10:22:50;;;;;;;39.20;16.20;;;;;;;4.09;100.00;99598.59;5037268;28;20060;-78
2021/12/27 10:25:18;;;;;;;44.53;18.15;;;;;;;4.07;100.00;99613.56;5033788;28;20092;-78
2021/12/27 10:27:46;;;;;;;46.58;18.40;;;;;;;3.69;100.00;99590.44;5034833;28;20033;-77
2021/12/27 10:30:15;;;;;;;46.83;18.17;;;;;;;3.85;100.00;99524.78;5039384;28;20029;-79
2021/12/27 10:32:44;;;;;;;41.10;17.58;;;;;;;4.29;100.00;99602.25;5040223;28;20033;-79
2021/12/27 10:35:11;;;;;;;39.65;17.92;;;;;;;3.78;100.00;99542.72;5045483;28;20056;-81
2021/12/27 10:37:38;;;;;;;40.03;17.33;;;;;;;3.82;100.00;99510.19;5042859;28;20144;-80
2021/12/27 10:40:09;;;;;;;42.55;18.13;;;;;;;4.11;100.00;99564.50;5045152;28;20120;-83
2021/12/27 10:42:46;;;;;;;39.80;16.60;;;;;;;3.97;100.00;99518.56;5044277;28;20022;-81
2021/12/27 10:45:13;;;;;;;41.45;17.35;;;;;;;4.05;100.00;99565.81;5046621;28;20079;-80
2021/12/27 10:47:53;;;;;;;40.13;17.10;;;;;;;4.26;100.00;99575.50;5044633;28;20072;-79
2021/12/27 10:50:29;;;;;;;59.60;20.13;;;;;;;4.15;100.00;99531.94;5048305;28;20040;-83
2021/12/27 10:53:04;;;;;;;92.05;37.08;;;;;;;3.73;100.00;99467.38;5050038;28;20029;-83
2021/12/27 10:59:01;;;;;;;36.78;16.70;;;;;;;3.91;100.00;99498.19;5108548;23;20518;-84
2021/12/27 11:01:31;;;;;;;36.05;16.70;;;;;;;3.73;100.00;99503.09;5039957;28;20029;-83
2021/12/27 11:04:02;;;;;;;40.83;16.60;;;;;;;3.81;100.00;99490.25;5052505;28;20020;-82
2021/12/27 11:06:33;;;;;;;39.35;16.33;;;;;;;3.78;100.00;99540.13;5028689;28;20036;-79
2021/12/27 11:09:01;;;;;;;61.13;26.20;;;;;;;4.14;100.00;99566.88;5020247;28;20045;-79
2021/12/27 11:11:31;;;;;;;82.05;36.45;;;;;;;3.92;100.00;99563.34;5054757;28;20390;-82
2021/12/27 11:13:58;;;;;;;42.65;16.35;;;;;;;3.57;100.00;99534.81;5072164;28;20025;-79
2021/12/27 11:16:26;;;;;;;43.05;15.90;;;;;;;3.25;100.00;99485.13;5041372;28;20044;-80
2021/12/27 11:18:58;;;;;;;38.65;17.15;;;;;;;3.52;100.00;99532.56;5058821;28;20067;-80
2021/12/27 11:21:35;;;;;;;35.53;15.68;;;;;;;3.47;100.00;99489.47;5055218;28;20029;-80
2021/12/27 11:24:03;;;;;;;39.92;17.38;;;;;;;3.82;100.00;99564.22;5036790;28;20035;-78
2021/12/27 11:26:34;;;;;;;42.03;17.75;;;;;;;3.63;100.00;99509.97;5061722;28;20025;-80
2021/12/27 11:29:25;;;;;;;43.58;17.48;;;;;;;3.78;100.00;99487.88;5051077;28;20029;-80
2021/12/27 11:32:12;;;;;;;41.03;16.75;;;;;;;3.87;100.00;99502.00;5030475;28;20018;-79
2021/12/27 11:37:09;;;;;;;40.83;15.17;;;;;;;3.57;100.00;99476.56;5109238;22;20080;-81
2021/12/27 11:39:39;;;;;;;38.03;15.70;;;;;;;3.74;100.00;99487.28;5073481;28;20355;-83
2021/12/27 11:42:11;;;;;;;41.40;15.25;;;;;;;3.97;100.00;99501.16;5124518;22;20062;-82
2021/12/27 11:44:51;;;;;;;49.90;17.42;;;;;;;4.37;100.00;99526.66;5021953;28;20034;-86
2021/12/27 11:47:30;;;;;;;42.95;16.15;;;;;;;4.13;100.00;99503.34;5003785;28;20050;-84
2021/12/27 11:50:11;;;;;;;36.42;15.15;;;;;;;3.90;100.00;99445.13;5000290;28;20108;-84
2021/12/27 11:52:49;;;;;;;38.83;14.43;;;;;;;3.97;100.00;99518.56;4987190;28;20065;-81